createdAt,value
2023-12-27T00:00:56.068Z,8.23
2023-12-27T00:03:22.494Z,8.50
2023-12-27T00:05:48.862Z,7.75
2023-12-27T00:08:15.357Z,7.32
2023-12-27T00:10:41.707Z,7.82
2023-12-27T00:13:08.149Z,7.47
2023-12-27T00:15:34.614Z,7.47
2023-12-27T00:18:01.554Z,8.38
2023-12-27T00:20:28.193Z,7.22
2023-12-27T00:22:54.601Z,7.50
2023-12-27T00:25:21.225Z,8.02
2023-12-27T00:27:47.569Z,7.30
2023-12-27T00:30:14.064Z,8.02
2023-12-27T00:32:40.421Z,7.55
2023-12-27T00:35:07.242Z,8.27
2023-12-27T00:37:33.594Z,8.07
2023-12-27T00:40:00.045Z,8.90
2023-12-27T00:42:26.620Z,7.05
2023-12-27T00:44:53.190Z,8.55
2023-12-27T00:47:19.954Z,8.30
2023-12-27T00:49:46.523Z,6.82
2023-12-27T00:52:13.592Z,8.05
2023-12-27T00:54:40.019Z,7.50
2023-12-27T00:57:06.995Z,7.22
2023-12-27T00:59:33.458Z,7.28
2023-12-27T01:01:59.778Z,8.00
2023-12-27T01:04:26.300Z,7.65
2023-12-27T01:06:52.884Z,8.02
2023-12-27T01:09:19.237Z,8.07
2023-12-27T01:11:45.634Z,8.65
2023-12-27T01:14:12.105Z,6.45
2023-12-27T01:16:38.460Z,7.20
2023-12-27T01:19:04.875Z,7.65
2023-12-27T01:21:31.572Z,7.25
2023-12-27T01:23:57.983Z,8.55
2023-12-27T01:26:24.364Z,7.78
2023-12-27T01:28:50.687Z,7.97
2023-12-27T01:31:17.349Z,8.27
2023-12-27T01:33:43.865Z,8.48
2023-12-27T01:36:10.459Z,8.15
2023-12-27T01:38:36.940Z,8.35
2023-12-27T01:41:03.469Z,8.18
2023-12-27T01:43:29.841Z,7.57
2023-12-27T01:45:56.730Z,7.55
2023-12-27T01:48:23.342Z,6.78
2023-12-27T01:50:50.596Z,6.95
2023-12-27T01:53:20.499Z,7.13
2023-12-27T01:55:48.090Z,7.20
2023-12-27T01:58:14.698Z,6.70
2023-12-27T02:00:42.942Z,6.90
2023-12-27T02:03:10.196Z,7.10
2023-12-27T02:05:36.805Z,7.03
2023-12-27T02:08:03.846Z,6.80
2023-12-27T02:10:30.586Z,7.47
2023-12-27T02:12:57.010Z,6.95
2023-12-27T02:15:23.406Z,7.13
2023-12-27T02:17:50.880Z,6.57
2023-12-27T02:20:17.511Z,5.95
2023-12-27T02:22:45.877Z,6.45
2023-12-27T02:25:12.257Z,7.95
2023-12-27T02:27:38.597Z,5.97
2023-12-27T02:30:05.360Z,7.10
2023-12-27T02:32:32.682Z,6.70
2023-12-27T02:34:59.168Z,6.47
2023-12-27T02:37:25.589Z,5.88
2023-12-27T02:39:51.874Z,6.43
2023-12-27T02:42:18.410Z,5.63
2023-12-27T02:44:44.728Z,6.10
2023-12-27T02:47:11.317Z,6.30
2023-12-27T02:49:38.139Z,6.60
2023-12-27T02:52:04.601Z,6.43
2023-12-27T02:54:31.032Z,5.82
2023-12-27T02:56:57.526Z,6.07
2023-12-27T02:59:24.034Z,6.30
2023-12-27T03:01:51.908Z,6.35
2023-12-27T03:04:18.385Z,6.00
2023-12-27T03:06:44.741Z,5.40
2023-12-27T03:09:11.542Z,5.53
2023-12-27T03:11:37.966Z,6.40
2023-12-27T03:14:04.359Z,6.07
2023-12-27T03:16:30.756Z,5.20
2023-12-27T03:18:57.632Z,5.97
2023-12-27T03:21:24.117Z,5.72
2023-12-27T03:23:50.477Z,5.85
2023-12-27T03:26:16.854Z,5.78
2023-12-27T03:28:43.173Z,6.20
2023-12-27T03:31:09.801Z,5.60
2023-12-27T03:33:36.448Z,5.82
2023-12-27T03:36:02.964Z,6.13
2023-12-27T03:38:29.269Z,5.82
2023-12-27T03:40:55.697Z,6.38
2023-12-27T03:43:22.031Z,5.93
2023-12-27T03:45:50.710Z,5.88
2023-12-27T03:50:43.534Z,5.43
2023-12-27T03:53:09.902Z,5.70
2023-12-27T03:55:36.224Z,5.78
2023-12-27T03:58:02.593Z,6.60
2023-12-27T04:00:29.537Z,5.63
2023-12-27T04:02:56.186Z,5.63
2023-12-27T04:05:22.586Z,5.35
2023-12-27T04:07:48.949Z,5.65
2023-12-27T04:10:15.329Z,6.57
2023-12-27T04:12:41.685Z,5.85
2023-12-27T04:15:08.607Z,5.63
2023-12-27T04:17:35.063Z,5.95
2023-12-27T04:20:01.438Z,6.45
2023-12-27T04:22:27.831Z,7.05
2023-12-27T04:24:56.321Z,6.35
2023-12-27T04:27:23.369Z,7.00
2023-12-27T04:29:49.721Z,6.28
2023-12-27T04:32:16.114Z,6.15
2023-12-27T04:34:42.525Z,5.97
2023-12-27T04:37:08.899Z,6.10
2023-12-27T04:39:36.275Z,7.35
2023-12-27T04:42:02.694Z,6.38
2023-12-27T04:44:29.147Z,6.20
2023-12-27T04:46:55.507Z,7.05
2023-12-27T04:49:22.105Z,5.40
2023-12-27T04:51:48.569Z,7.78
2023-12-27T04:54:15.122Z,7.07
2023-12-27T04:56:41.565Z,7.45
2023-12-27T04:59:08.117Z,7.22
2023-12-27T05:01:34.475Z,7.63
2023-12-27T05:04:00.962Z,6.82
2023-12-27T05:06:27.408Z,7.03
2023-12-27T05:08:53.971Z,7.00
2023-12-27T05:11:20.564Z,6.68
2023-12-27T05:13:47.367Z,7.07
2023-12-27T05:16:14.750Z,6.32
2023-12-27T05:18:41.832Z,6.43
2023-12-27T05:21:09.411Z,7.30
2023-12-27T05:23:35.803Z,7.30
2023-12-27T05:26:02.824Z,6.97
2023-12-27T05:28:29.216Z,6.30
2023-12-27T05:30:55.617Z,6.90
2023-12-27T05:33:22.396Z,8.02
2023-12-27T05:35:48.828Z,7.32
2023-12-27T05:38:15.198Z,7.10
2023-12-27T05:40:41.598Z,6.65
2023-12-27T05:43:08.474Z,7.75
2023-12-27T05:45:35.019Z,7.10
2023-12-27T05:48:01.839Z,6.80
2023-12-27T05:50:28.237Z,6.78
2023-12-27T05:52:55.806Z,5.60
2023-12-27T05:55:22.303Z,7.65
2023-12-27T05:57:48.696Z,5.95
2023-12-27T06:00:18.146Z,6.78
2023-12-27T06:02:44.609Z,6.70
2023-12-27T06:05:14.223Z,6.57
2023-12-27T06:07:41.616Z,7.57
2023-12-27T06:10:08.097Z,4.80
2023-12-27T06:12:34.572Z,5.72
2023-12-27T06:15:01.320Z,6.20
2023-12-27T06:17:27.789Z,6.50
2023-12-27T06:19:54.175Z,5.05
2023-12-27T06:22:20.511Z,6.53
2023-12-27T06:24:48.299Z,5.25
2023-12-27T06:27:14.863Z,5.43
2023-12-27T06:29:41.233Z,5.13
2023-12-27T06:32:07.598Z,6.28
2023-12-27T06:34:34.164Z,6.50
2023-12-27T06:37:00.654Z,5.35
2023-12-27T06:39:27.071Z,5.97
2023-12-27T06:41:53.440Z,6.13
2023-12-27T06:44:19.778Z,6.20
2023-12-27T06:46:46.154Z,6.65
2023-12-27T06:49:12.538Z,6.70
2023-12-27T06:51:39.022Z,6.72
2023-12-27T06:54:05.441Z,6.68
2023-12-27T06:56:31.983Z,6.38
2023-12-27T06:58:58.339Z,6.82
2023-12-27T07:01:26.256Z,6.93
2023-12-27T07:03:52.711Z,6.40
2023-12-27T07:06:19.151Z,6.22
2023-12-27T07:08:46.207Z,5.85
2023-12-27T07:11:19.756Z,7.53
2023-12-27T07:13:47.388Z,7.03
2023-12-27T07:16:14.624Z,6.90
2023-12-27T07:18:41.540Z,6.97
2023-12-27T07:21:07.910Z,7.20
2023-12-27T07:23:34.337Z,6.97
2023-12-27T07:26:01.020Z,7.07
2023-12-27T07:28:27.622Z,5.65
2023-12-27T07:30:54.102Z,6.03
2023-12-27T07:33:20.757Z,6.97
2023-12-27T07:35:47.471Z,6.70
2023-12-27T07:38:14.340Z,5.50
2023-12-27T07:40:45.687Z,5.55
2023-12-27T07:43:12.064Z,5.90
2023-12-27T07:45:38.556Z,6.50
2023-12-27T07:48:05.687Z,6.20
2023-12-27T07:50:32.446Z,6.38
2023-12-27T07:52:58.774Z,6.45
2023-12-27T07:55:25.104Z,7.38
2023-12-27T07:57:51.411Z,6.53
2023-12-27T08:00:19.234Z,6.60
2023-12-27T08:02:45.770Z,5.43
2023-12-27T08:05:12.193Z,6.10
2023-12-27T08:07:39.960Z,6.40
2023-12-27T08:10:07.597Z,6.57
2023-12-27T08:12:34.036Z,7.70
2023-12-27T08:15:00.553Z,7.40
2023-12-27T08:17:27.929Z,6.30
2023-12-27T08:19:55.040Z,7.03
2023-12-27T08:22:22.037Z,6.95
2023-12-27T08:24:48.627Z,6.75
2023-12-27T08:27:15.014Z,7.22
2023-12-27T08:29:42.228Z,8.77
2023-12-27T08:32:09.301Z,8.23
2023-12-27T08:34:35.688Z,7.72
2023-12-27T08:37:02.036Z,8.60
2023-12-27T08:39:28.404Z,7.22
2023-12-27T08:41:54.842Z,7.38
2023-12-27T08:44:21.224Z,6.47
2023-12-27T08:46:47.682Z,6.28
2023-12-27T08:49:14.191Z,6.53
2023-12-27T08:51:40.834Z,6.47
2023-12-27T08:54:07.277Z,5.75
2023-12-27T08:56:33.683Z,6.60
2023-12-27T08:59:00.317Z,7.10
2023-12-27T09:01:26.735Z,6.20
2023-12-27T09:03:53.227Z,6.20
2023-12-27T09:06:19.735Z,5.30
2023-12-27T09:08:46.158Z,6.72
2023-12-27T09:11:12.672Z,5.95
2023-12-27T09:13:39.023Z,6.30
2023-12-27T09:16:05.442Z,6.00
2023-12-27T09:18:31.920Z,6.65
2023-12-27T09:20:58.380Z,6.53
2023-12-27T09:23:24.830Z,6.53
2023-12-27T09:25:51.189Z,6.20
2023-12-27T09:28:19.560Z,5.47
2023-12-27T09:30:45.921Z,5.45
2023-12-27T09:33:14.705Z,5.25
2023-12-27T09:35:42.922Z,5.90
2023-12-27T09:38:09.374Z,5.78
2023-12-27T09:40:35.863Z,5.60
2023-12-27T09:43:04.967Z,5.78
2023-12-27T09:45:33.700Z,6.10
2023-12-27T09:50:27.004Z,5.50
2023-12-27T09:52:54.849Z,6.20
2023-12-27T09:55:21.380Z,5.77
2023-12-27T09:57:50.087Z,5.55
2023-12-27T10:02:45.514Z,5.40
2023-12-27T10:05:16.591Z,5.03
2023-12-27T10:07:43.627Z,5.93
2023-12-27T10:10:20.329Z,5.57
2023-12-27T10:12:51.749Z,5.45
2023-12-27T10:15:18.287Z,6.00
2023-12-27T10:17:44.704Z,5.80
2023-12-27T10:20:30.202Z,6.00
2023-12-27T10:22:56.616Z,5.57
2023-12-27T10:25:23.075Z,6.28
2023-12-27T10:27:49.465Z,5.72
2023-12-27T10:30:19.207Z,6.20
2023-12-27T10:32:56.683Z,5.57
2023-12-27T10:35:23.260Z,5.15
2023-12-27T10:37:58.847Z,5.40
2023-12-27T10:40:25.535Z,4.80
2023-12-27T10:42:52.634Z,4.70
2023-12-27T10:45:19.044Z,5.15
2023-12-27T10:47:48.608Z,4.20
2023-12-27T10:50:19.986Z,5.15
2023-12-27T10:52:51.483Z,5.28
2023-12-27T10:55:19.931Z,5.05
2023-12-27T10:57:48.167Z,5.38
2023-12-27T11:00:14.764Z,5.47
2023-12-27T11:02:41.150Z,5.60
2023-12-27T11:05:08.231Z,4.57
2023-12-27T11:07:37.054Z,4.93
2023-12-27T11:10:07.139Z,5.60
2023-12-27T11:12:33.986Z,4.93
2023-12-27T11:15:03.406Z,4.38
2023-12-27T11:17:31.669Z,4.28
2023-12-27T11:19:58.870Z,4.35
2023-12-27T11:22:25.370Z,4.25
2023-12-27T11:24:51.895Z,4.05
2023-12-27T11:27:19.450Z,4.18
2023-12-27T11:29:46.339Z,3.97
2023-12-27T11:32:12.792Z,4.15
2023-12-27T11:34:39.236Z,4.22
2023-12-27T11:37:06.716Z,4.10
2023-12-27T11:39:33.320Z,3.75
2023-12-27T11:42:01.590Z,4.70
2023-12-27T11:44:43.048Z,4.32
2023-12-27T11:47:14.430Z,3.58
2023-12-27T11:49:41.447Z,3.63
2023-12-27T11:52:08.624Z,3.75
2023-12-27T11:54:35.135Z,4.03
2023-12-27T11:57:01.566Z,3.60
2023-12-27T11:59:28.644Z,3.30
2023-12-27T12:01:56.646Z,4.25
2023-12-27T12:04:34.637Z,3.15
2023-12-27T12:07:13.351Z,3.60
2023-12-27T12:09:45.272Z,3.92
2023-12-27T12:12:16.168Z,3.10
2023-12-27T12:14:42.875Z,3.28
2023-12-27T12:17:09.527Z,3.65
2023-12-27T12:19:39.207Z,3.47
2023-12-27T12:22:06.145Z,3.47
2023-12-27T12:24:34.082Z,3.67
2023-12-27T12:27:01.144Z,3.55
2023-12-27T12:29:27.722Z,3.45
2023-12-27T12:31:57.059Z,3.20
2023-12-27T12:34:23.937Z,3.17
2023-12-27T12:36:51.276Z,3.15
2023-12-27T12:39:18.993Z,2.97
2023-12-27T12:41:45.462Z,3.00
2023-12-27T12:44:12.076Z,3.35
2023-12-27T12:46:39.356Z,3.15
2023-12-27T12:49:06.716Z,3.10
2023-12-27T12:51:33.582Z,2.95
2023-12-27T12:54:00.207Z,4.22
2023-12-27T12:56:26.981Z,2.80
2023-12-27T12:58:53.696Z,2.72
2023-12-27T13:01:20.572Z,3.22
2023-12-27T13:03:49.538Z,3.08
2023-12-27T13:06:16.962Z,3.40
2023-12-27T13:08:43.775Z,3.20
2023-12-27T13:11:12.146Z,2.92
2023-12-27T13:13:39.066Z,2.90
2023-12-27T13:16:05.966Z,3.60
2023-12-27T13:18:32.740Z,3.08
2023-12-27T13:20:59.188Z,3.17
2023-12-27T13:23:25.642Z,3.03
2023-12-27T13:25:52.065Z,3.03
2023-12-27T13:28:26.352Z,3.45
2023-12-27T13:30:55.379Z,3.33
2023-12-27T13:33:22.457Z,2.90
2023-12-27T13:35:49.551Z,3.05
2023-12-27T13:38:16.117Z,3.25
2023-12-27T13:40:42.833Z,3.00
2023-12-27T13:43:09.903Z,2.78
2023-12-27T13:45:36.693Z,2.92
2023-12-27T13:48:03.728Z,3.40
2023-12-27T13:50:30.544Z,3.17
2023-12-27T13:52:56.966Z,3.60
2023-12-27T13:55:23.977Z,2.92
2023-12-27T13:57:50.933Z,2.40
2023-12-27T14:00:21.353Z,3.03
2023-12-27T14:02:51.386Z,3.38
2023-12-27T14:05:18.543Z,3.10
2023-12-27T14:07:45.138Z,2.92
2023-12-27T14:10:13.363Z,2.92
2023-12-27T14:12:44.219Z,3.17
2023-12-27T14:15:11.799Z,3.10
2023-12-27T14:17:40.657Z,3.30
2023-12-27T14:20:08.078Z,3.92
2023-12-27T14:22:35.651Z,2.90
2023-12-27T14:25:02.241Z,3.20
2023-12-27T14:27:28.893Z,3.63
2023-12-27T14:29:55.839Z,3.30
2023-12-27T14:32:22.607Z,3.10
2023-12-27T14:34:49.059Z,3.38
2023-12-27T14:37:15.509Z,3.80
2023-12-27T14:39:42.526Z,3.58
2023-12-27T14:42:09.024Z,4.30
2023-12-27T14:44:35.616Z,3.63
2023-12-27T14:47:01.993Z,4.05
2023-12-27T14:49:28.830Z,4.22
2023-12-27T14:51:55.500Z,4.15
2023-12-27T14:54:22.190Z,3.88
2023-12-27T14:56:48.608Z,3.33
2023-12-27T14:59:14.993Z,3.30
2023-12-27T15:01:41.389Z,3.38
2023-12-27T15:04:09.406Z,3.70
2023-12-27T15:06:37.755Z,3.75
2023-12-27T15:09:07.591Z,3.60
2023-12-27T15:11:34.159Z,3.10
2023-12-27T15:14:00.515Z,3.35
2023-12-27T15:16:26.840Z,3.47
2023-12-27T15:18:53.312Z,6.18
2023-12-27T15:21:21.697Z,3.45
2023-12-27T15:23:48.849Z,4.43
2023-12-27T15:26:16.284Z,3.05
2023-12-27T15:28:42.619Z,2.90
2023-12-27T15:31:09.065Z,3.15
2023-12-27T15:33:35.581Z,2.88
2023-12-27T15:36:03.012Z,2.80
2023-12-27T15:38:30.810Z,2.72
2023-12-27T15:40:57.352Z,3.37
2023-12-27T15:43:23.851Z,3.75
2023-12-27T15:45:50.273Z,2.80
2023-12-27T15:48:16.963Z,2.80
2023-12-27T15:50:43.434Z,3.15
2023-12-27T15:53:11.707Z,2.90
2023-12-27T15:55:38.427Z,3.15
2023-12-27T15:58:04.815Z,3.00
2023-12-27T16:00:31.400Z,2.47
2023-12-27T16:02:57.820Z,2.85
2023-12-27T16:05:25.277Z,2.40
2023-12-27T16:07:51.789Z,2.38
2023-12-27T16:10:18.164Z,2.92
2023-12-27T16:12:44.676Z,2.47
2023-12-27T16:15:11.161Z,2.80
2023-12-27T16:17:38.441Z,2.97
2023-12-27T16:20:05.455Z,2.22
2023-12-27T16:22:32.008Z,2.53
2023-12-27T16:24:58.527Z,1.88
2023-12-27T16:27:25.180Z,2.95
2023-12-27T16:29:52.450Z,2.53
2023-12-27T16:32:22.372Z,3.20
2023-12-27T16:34:50.953Z,2.15
2023-12-27T16:37:17.347Z,2.40
2023-12-27T16:39:43.790Z,2.05
2023-12-27T16:42:10.396Z,2.03
2023-12-27T16:44:38.405Z,2.25
2023-12-27T16:47:05.296Z,2.53
2023-12-27T16:49:31.884Z,2.50
2023-12-27T16:51:58.536Z,2.17
2023-12-27T16:54:24.957Z,2.50
2023-12-27T16:56:51.705Z,2.42
2023-12-27T16:59:18.182Z,2.20
2023-12-27T17:01:44.587Z,2.08
2023-12-27T17:04:11.524Z,2.55
2023-12-27T17:06:38.067Z,2.80
2023-12-27T17:09:04.494Z,2.50
2023-12-27T17:11:31.056Z,2.28
2023-12-27T17:13:57.474Z,2.20
2023-12-27T17:16:23.828Z,2.47
2023-12-27T17:18:50.937Z,2.47
2023-12-27T17:21:19.702Z,2.00
2023-12-27T17:23:47.466Z,1.88
2023-12-27T17:26:14.241Z,2.05
2023-12-27T17:28:40.909Z,2.17
2023-12-27T17:31:07.532Z,1.85
2023-12-27T17:33:34.406Z,2.45
2023-12-27T17:36:01.120Z,2.00
2023-12-27T17:38:27.538Z,2.03
2023-12-27T17:40:53.971Z,2.00
2023-12-27T17:43:22.727Z,1.95
2023-12-27T17:45:50.284Z,1.73
2023-12-27T17:48:22.630Z,2.03
2023-12-27T17:50:50.239Z,1.80
2023-12-27T17:53:20.430Z,1.80
2023-12-27T17:55:50.550Z,2.00
2023-12-27T17:58:22.443Z,2.20
2023-12-27T18:00:49.073Z,1.60
2023-12-27T18:03:16.000Z,2.28
2023-12-27T18:05:43.083Z,2.97
2023-12-27T18:08:09.767Z,1.95
2023-12-27T18:10:37.724Z,1.90
2023-12-27T18:13:04.504Z,2.53
2023-12-27T18:15:30.978Z,2.20
2023-12-27T18:17:57.564Z,2.03
2023-12-27T18:20:24.557Z,2.25
2023-12-27T18:22:52.194Z,2.67
2023-12-27T18:25:18.544Z,2.22
2023-12-27T18:27:47.492Z,2.58
2023-12-27T18:30:14.190Z,3.00
2023-12-27T18:32:41.207Z,3.65
2023-12-27T18:35:09.662Z,3.55
2023-12-27T18:37:36.188Z,2.22
2023-12-27T18:40:02.691Z,2.42
2023-12-27T18:42:29.083Z,2.85
2023-12-27T18:44:55.506Z,2.58
2023-12-27T18:47:21.905Z,2.28
2023-12-27T18:49:48.460Z,2.00
2023-12-27T18:52:15.432Z,1.90
2023-12-27T18:54:41.956Z,2.13
2023-12-27T18:57:08.472Z,1.60
2023-12-27T18:59:37.873Z,2.33
2023-12-27T19:02:04.795Z,2.13
2023-12-27T19:04:31.901Z,2.28
2023-12-27T19:06:58.393Z,2.08
2023-12-27T19:09:24.940Z,2.28
2023-12-27T19:11:51.754Z,2.08
2023-12-27T19:14:20.493Z,1.88
2023-12-27T19:21:49.738Z,1.70
2023-12-27T19:26:43.798Z,1.90
2023-12-27T19:29:11.298Z,1.80
2023-12-27T19:31:37.748Z,1.92
2023-12-27T19:34:04.356Z,1.67
2023-12-27T19:36:31.684Z,1.63
2023-12-27T19:38:58.890Z,1.80
2023-12-27T19:41:27.989Z,1.50
2023-12-27T19:43:55.083Z,1.83
2023-12-27T19:46:22.472Z,1.83
2023-12-27T19:48:51.196Z,1.77
2023-12-27T19:51:18.145Z,1.33
2023-12-27T19:53:44.908Z,1.50
2023-12-27T19:56:14.981Z,1.75
2023-12-27T19:58:43.136Z,1.80
2023-12-27T20:01:09.674Z,2.13
2023-12-27T20:03:38.474Z,1.52
2023-12-27T20:06:05.339Z,1.67
2023-12-27T20:08:32.392Z,1.60
2023-12-27T20:10:59.312Z,1.70
2023-12-27T20:13:26.274Z,1.70
2023-12-27T20:15:52.787Z,1.92
2023-12-27T20:18:22.161Z,1.70
2023-12-27T20:20:48.647Z,2.10
2023-12-27T20:23:15.611Z,1.88
2023-12-27T20:25:43.837Z,2.00
2023-12-27T20:28:10.810Z,1.70
2023-12-27T20:30:50.067Z,1.83
2023-12-27T20:33:18.093Z,1.85
2023-12-27T20:35:44.561Z,1.83
2023-12-27T20:38:11.463Z,1.20
2023-12-27T20:40:39.648Z,1.55
2023-12-27T20:43:06.136Z,1.38
2023-12-27T20:45:33.663Z,2.20
2023-12-27T20:48:00.904Z,1.80
2023-12-27T20:50:27.900Z,1.80
2023-12-27T20:52:55.894Z,1.58
2023-12-27T20:55:22.749Z,2.17
2023-12-27T20:57:50.314Z,1.70
2023-12-27T21:00:16.969Z,1.90
2023-12-27T21:02:43.661Z,2.08
2023-12-27T21:05:10.257Z,2.15
2023-12-27T21:07:37.000Z,1.50
2023-12-27T21:10:03.783Z,1.40
2023-12-27T21:12:39.784Z,1.60
2023-12-27T21:15:07.501Z,1.63
2023-12-27T21:17:38.660Z,1.50
2023-12-27T21:20:06.152Z,1.60
2023-12-27T21:22:34.753Z,1.20
2023-12-27T21:25:02.654Z,1.85
2023-12-27T21:27:29.424Z,1.33
2023-12-27T21:29:58.649Z,1.90
2023-12-27T21:32:25.554Z,1.77
2023-12-27T21:34:52.206Z,1.63
2023-12-27T21:37:18.782Z,1.92
2023-12-27T21:39:46.619Z,1.58
2023-12-27T21:42:12.990Z,1.67
2023-12-27T21:44:42.501Z,1.70
2023-12-27T21:47:09.440Z,1.70
2023-12-27T21:49:35.863Z,1.67
2023-12-27T21:52:02.359Z,1.80
2023-12-27T21:54:28.717Z,1.77
2023-12-27T21:56:55.217Z,1.90
2023-12-27T21:59:21.541Z,2.08
2023-12-27T22:01:47.887Z,1.85
2023-12-27T22:04:15.008Z,1.50
2023-12-27T22:06:44.199Z,2.05
2023-12-27T22:09:10.790Z,1.77
2023-12-27T22:11:37.751Z,1.75
2023-12-27T22:14:05.515Z,2.20
2023-12-27T22:16:31.962Z,1.70
2023-12-27T22:18:58.428Z,1.75
2023-12-27T22:21:31.541Z,2.08
2023-12-27T22:23:58.376Z,1.88
2023-12-27T22:26:24.940Z,1.70
2023-12-27T22:28:51.572Z,2.42
2023-12-27T22:31:19.079Z,2.00
2023-12-27T22:33:45.724Z,1.92
2023-12-27T22:36:12.371Z,1.92
2023-12-27T22:38:39.859Z,1.70
2023-12-27T22:41:06.245Z,2.13
2023-12-27T22:43:32.913Z,2.45
2023-12-27T22:45:59.287Z,2.00
2023-12-27T22:48:25.948Z,1.90
2023-12-27T22:50:52.637Z,2.00
2023-12-27T22:53:18.946Z,2.25
2023-12-27T22:55:45.366Z,2.17
2023-12-27T22:58:11.735Z,2.30
2023-12-27T23:00:38.572Z,2.67
2023-12-27T23:03:05.072Z,2.10
2023-12-27T23:05:32.172Z,2.00
2023-12-27T23:07:58.936Z,1.92
2023-12-27T23:10:25.529Z,2.08
2023-12-27T23:12:51.980Z,2.10
2023-12-27T23:15:18.469Z,2.17
2023-12-27T23:17:45.099Z,2.15
2023-12-27T23:20:12.981Z,1.85
2023-12-27T23:22:39.402Z,2.13
2023-12-27T23:25:06.031Z,2.10
2023-12-27T23:27:34.608Z,2.38
2023-12-27T23:32:34.696Z,2.10
2023-12-27T23:35:08.993Z,2.20
2023-12-27T23:37:40.820Z,2.25
2023-12-27T23:40:08.510Z,2.40
2023-12-27T23:42:35.433Z,2.15
2023-12-27T23:45:01.841Z,1.77
2023-12-27T23:47:29.069Z,2.10
2023-12-27T23:49:55.642Z,2.33
2023-12-27T23:52:22.146Z,1.95
2023-12-27T23:54:48.738Z,2.35
2023-12-27T23:57:15.819Z,1.83
2023-12-27T23:59:42.573Z,2.30
